| time (UTC) | temp C | wind direction | speed KPH | gust KPH | rain 1hr cm | rain 24hr cm | rain mn cm | humidity % | barometer mb |
| 20260506015356 | 18 | 90 | 0.0 | 0.0 | 0.00 | 0.00 | 0.00 | 78 | 1017.4 |
| 20260506014853 | 18 | 90 | 0.0 | 0.0 | 0.00 | 0.00 | 0.00 | 78 | 1017.4 |
| 20260506014350 | 18 | 94 | 0.0 | 0.0 | 0.00 | 0.00 | 0.00 | 77 | 1017.3 |
| 20260506013846 | 18 | 84 | 0.0 | 0.0 | 0.00 | 0.00 | 0.00 | 76 | 1017.5 |
| 20260506013344 | 18 | 90 | 0.0 | 0.0 | 0.00 | 0.00 | 0.00 | 76 | 1017.2 |
| 20260506012840 | 18 | 90 | 0.0 | 0.0 | 0.00 | 0.00 | 0.00 | 75 | 1017.0 |
| 20260506012337 | 18 | 106 | 1.6 | 1.6 | 0.00 | 0.00 | 0.00 | 74 | 1017.2 |
| 20260506011834 | 18 | 109 | 1.6 | 1.6 | 0.00 | 0.00 | 0.00 | 74 | 1017.2 |
| 20260506011331 | 19 | 87 | 0.0 | 0.0 | 0.00 | 0.00 | 0.00 | 74 | 1017.1 |
| 20260506010829 | 19 | 162 | 3.2 | 3.2 | 0.00 | 0.00 | 0.00 | 73 | 1017.1 |
| 20260506010326 | 19 | 91 | 0.0 | 0.0 | 0.00 | 0.00 | 0.00 | 72 | 1017.1 |
| 20260506005823 | 19 | 86 | 0.0 | 0.0 | 0.00 | 0.00 | 0.00 | 72 | 1017.2 |
| 20260506005320 | 20 | 89 | 1.6 | 1.6 | 0.00 | 0.00 | 0.00 | 71 | 1017.3 |
| 20260506004816 | 20 | 110 | 1.6 | 3.2 | 0.00 | 0.00 | 0.00 | 70 | 1017.1 |
| 20260506004314 | 20 | 82 | 0.0 | 0.0 | 0.00 | 0.00 | 0.00 | 70 | 1016.8 |
| 20260506003809 | 20 | 89 | 0.0 | 0.0 | 0.00 | 0.00 | 0.00 | 70 | 1016.9 |
| 20260506003306 | 20 | 95 | 1.6 | 1.6 | 0.00 | 0.00 | 0.00 | 69 | 1016.9 |
| 20260506002802 | 20 | 88 | 0.0 | 0.0 | 0.00 | 0.00 | 0.00 | 69 | 1017.1 |
| 20260506002259 | 20 | 100 | 1.6 | 3.2 | 0.00 | 0.00 | 0.00 | 69 | 1017.1 |
| 20260506001754 | 20 | 90 | 0.0 | 0.0 | 0.00 | 0.00 | 0.00 | 68 | 1017.1 |
| 20260506001252 | 20 | 108 | 3.2 | 3.2 | 0.00 | 0.00 | 0.00 | 68 | 1017.0 |
| 20260506000749 | 20 | 101 | 0.0 | 1.6 | 0.00 | 0.00 | 0.00 | 68 | 1016.8 |
| 20260506000247 | 21 | 108 | 0.0 | 1.6 | 0.00 | 0.00 | 0.00 | 67 | 1017.0 |
| 20260505235743 | 21 | 200 | 1.6 | 4.8 | 0.00 | 0.00 | 0.00 | 67 | 1017.0 |
| 20260505235241 | 21 | 198 | 3.2 | 4.8 | 0.00 | 0.00 | 0.00 | 67 | 1017.2 |
| 20260505234737 | 21 | 110 | 3.2 | 3.2 | 0.00 | 0.00 | 0.00 | 66 | 1016.8 |
| 20260505234235 | 21 | 80 | 0.0 | 0.0 | 0.00 | 0.00 | 0.00 | 66 | 1017.1 |
| 20260505233731 | 21 | 146 | 4.8 | 4.8 | 0.00 | 0.00 | 0.00 | 65 | 1017.0 |
| 20260505233230 | 21 | 36 | 3.2 | 3.2 | 0.00 | 0.00 | 0.00 | 65 | 1016.8 |
| 20260505232726 | 21 | 141 | 3.2 | 3.2 | 0.00 | 0.00 | 0.00 | 65 | 1016.7 |
| 20260505232224 | 21 | 127 | 1.6 | 3.2 | 0.00 | 0.00 | 0.00 | 65 | 1016.7 |
| 20260505231720 | 22 | 115 | 4.8 | 8.0 | 0.00 | 0.00 | 0.00 | 65 | 1016.8 |
| 20260505231220 | 22 | 153 | 3.2 | 3.2 | 0.00 | 0.00 | 0.00 | 64 | 1016.5 |
| 20260505230717 | 22 | 183 | 4.8 | 4.8 | 0.00 | 0.00 | 0.00 | 64 | 1016.6 |
| 20260505230214 | 22 | 161 | 3.2 | 4.8 | 0.00 | 0.00 | 0.00 | 63 | 1016.7 |
| 20260505225710 | 22 | 98 | 1.6 | 1.6 | 0.00 | 0.00 | 0.00 | 61 | 1016.7 |
| 20260505225207 | 22 | 167 | 4.8 | 4.8 | 0.00 | 0.00 | 0.00 | 61 | 1016.8 |
| 20260505224702 | 22 | 117 | 3.2 | 4.8 | 0.00 | 0.00 | 0.00 | 62 | 1016.5 |
| 20260505224201 | 22 | 173 | 6.4 | 9.7 | 0.00 | 0.00 | 0.00 | 61 | 1016.9 |
| 20260505223658 | 23 | 192 | 8.0 | 9.7 | 0.00 | 0.00 | 0.00 | 59 | 1016.5 |
| 20260505223153 | 23 | 166 | 4.8 | 8.0 | 0.00 | 0.00 | 0.00 | 59 | 1016.9 |
| 20260505222650 | 23 | 67 | 3.2 | 3.2 | 0.00 | 0.00 | 0.00 | 59 | 1016.7 |
| 20260505222146 | 23 | 162 | 3.2 | 3.2 | 0.00 | 0.00 | 0.00 | 58 | 1016.7 |
| 20260505221643 | 23 | 255 | 6.4 | 9.7 | 0.00 | 0.00 | 0.00 | 57 | 1017.0 |
| 20260505221140 | 23 | 175 | 3.2 | 4.8 | 0.00 | 0.00 | 0.00 | 59 | 1016.8 |
| 20260505220637 | 23 | 95 | 1.6 | 1.6 | 0.00 | 0.00 | 0.00 | 59 | 1016.6 |
| 20260505220135 | 23 | 110 | 6.4 | 9.7 | 0.00 | 0.00 | 0.00 | 57 | 1016.9 |
| 20260505215632 | 23 | 115 | 3.2 | 3.2 | 0.00 | 0.00 | 0.00 | 57 | 1016.8 |
| 20260505215130 | 23 | 106 | 1.6 | 1.6 | 0.00 | 0.00 | 0.00 | 56 | 1016.7 |
| 20260505214628 | 24 | 152 | 8.0 | 12.9 | 0.00 | 0.00 | 0.00 | 56 | 1016.7 |
| 20260505214125 | 23 | 69 | 3.2 | 3.2 | 0.00 | 0.00 | 0.00 | 56 | 1016.8 |
| 20260505213622 | 23 | 95 | 0.0 | 1.6 | 0.00 | 0.00 | 0.00 | 57 | 1016.8 |
| 20260505213119 | 23 | 121 | 3.2 | 4.8 | 0.00 | 0.00 | 0.00 | 56 | 1016.9 |
| 20260505212615 | 24 | 84 | 8.0 | 9.7 | 0.00 | 0.00 | 0.00 | 56 | 1017.1 |
| 20260505212113 | 24 | 274 | 6.4 | 8.0 | 0.00 | 0.00 | 0.00 | 56 | 1017.2 |
| 20260505211609 | 24 | 104 | 0.0 | 1.6 | 0.00 | 0.00 | 0.00 | 54 | 1017.0 |
| 20260505211107 | 25 | 33 | 3.2 | 3.2 | 0.00 | 0.00 | 0.00 | 54 | 1016.8 |
| 20260505210603 | 25 | 136 | 3.2 | 4.8 | 0.00 | 0.00 | 0.00 | 54 | 1017.1 |
| 20260505210100 | 25 | 182 | 8.0 | 11.3 | 0.00 | 0.00 | 0.00 | 53 | 1017.0 |
| 20260505205558 | 24 | 113 | 3.2 | 4.8 | 0.00 | 0.00 | 0.00 | 54 | 1016.8 |
| 20260505205055 | 25 | 236 | 11.3 | 16.1 | 0.00 | 0.00 | 0.00 | 53 | 1017.0 |
| 20260505204552 | 25 | 201 | 8.0 | 9.7 | 0.00 | 0.00 | 0.00 | 53 | 1016.9 |
| 20260505204050 | 25 | 66 | 4.8 | 4.8 | 0.00 | 0.00 | 0.00 | 52 | 1016.9 |
| 20260505203546 | 25 | 223 | 6.4 | 9.7 | 0.00 | 0.00 | 0.00 | 52 | 1016.9 |
| 20260505203043 | 25 | 87 | 1.6 | 3.2 | 0.00 | 0.00 | 0.00 | 53 | 1016.8 |
| 20260505202539 | 25 | 201 | 4.8 | 8.0 | 0.00 | 0.00 | 0.00 | 52 | 1016.9 |
| 20260505202035 | 25 | 205 | 11.3 | 16.1 | 0.00 | 0.00 | 0.00 | 52 | 1016.9 |
| 20260505201532 | 25 | 76 | 4.8 | 4.8 | 0.00 | 0.00 | 0.00 | 50 | 1017.2 |
| 20260505201030 | 25 | 86 | 1.6 | 1.6 | 0.00 | 0.00 | 0.00 | 51 | 1017.1 |
| 20260505200528 | 25 | 14 | 6.4 | 8.0 | 0.00 | 0.00 | 0.00 | 51 | 1017.2 |
| 20260505200024 | 25 | 91 | 1.6 | 1.6 | 0.00 | 0.00 | 0.00 | 52 | 1017.2 |
| 20260505195520 | 25 | 225 | 4.8 | 8.0 | 0.00 | 0.00 | 0.00 | 52 | 1017.2 |
| 20260505195018 | 25 | 226 | 1.6 | 3.2 | 0.00 | 0.00 | 0.00 | 53 | 1017.2 |
| 20260505194515 | 25 | 113 | 3.2 | 4.8 | 0.00 | 0.00 | 0.00 | 52 | 1017.3 |
| 20260505194010 | 26 | 160 | 6.4 | 9.7 | 0.00 | 0.00 | 0.00 | 51 | 1017.5 |
| 20260505193508 | 26 | 45 | 4.8 | 8.0 | 0.00 | 0.00 | 0.00 | 50 | 1017.5 |
| 20260505193005 | 25 | 85 | 4.8 | 4.8 | 0.00 | 0.00 | 0.00 | 53 | 1018.0 |
| 20260505192503 | 25 | 88 | 1.6 | 3.2 | 0.00 | 0.00 | 0.00 | 52 | 1017.9 |
| 20260505192000 | 26 | 148 | 4.8 | 4.8 | 0.00 | 0.00 | 0.00 | 52 | 1018.0 |
| 20260505191459 | 25 | 121 | 1.6 | 3.2 | 0.00 | 0.00 | 0.00 | 53 | 1017.9 |
| 20260505190956 | 25 | 258 | 4.8 | 4.8 | 0.00 | 0.00 | 0.00 | 51 | 1018.1 |
| 20260505190450 | 26 | 120 | 1.6 | 3.2 | 0.00 | 0.00 | 0.00 | 52 | 1018.0 |
| 20260505185946 | 26 | 268 | 9.7 | 11.3 | 0.00 | 0.00 | 0.00 | 51 | 1018.2 |
| 20260505185444 | 26 | 82 | 0.0 | 1.6 | 0.00 | 0.00 | 0.00 | 51 | 1018.3 |
| 20260505184940 | 26 | 233 | 8.0 | 9.7 | 0.00 | 0.00 | 0.00 | 50 | 1018.2 |
| 20260505184437 | 26 | 171 | 8.0 | 9.7 | 0.00 | 0.00 | 0.00 | 48 | 1018.3 |
| 20260505183933 | 26 | 201 | 9.7 | 12.9 | 0.00 | 0.00 | 0.00 | 50 | 1018.2 |
| 20260505183430 | 26 | 93 | 3.2 | 3.2 | 0.00 | 0.00 | 0.00 | 48 | 1018.0 |
| 20260505182927 | 26 | 94 | 1.6 | 1.6 | 0.00 | 0.00 | 0.00 | 51 | 1018.1 |
| 20260505182424 | 26 | 141 | 4.8 | 8.0 | 0.00 | 0.00 | 0.00 | 49 | 1017.8 |
| 20260505181920 | 26 | 88 | 3.2 | 3.2 | 0.00 | 0.00 | 0.00 | 51 | 1017.8 |
| 20260505181418 | 26 | 126 | 6.4 | 8.0 | 0.00 | 0.00 | 0.00 | 49 | 1017.7 |
| 20260505180914 | 27 | 160 | 3.2 | 3.2 | 0.00 | 0.00 | 0.00 | 48 | 1017.9 |
| 20260505180411 | 26 | 68 | 3.2 | 3.2 | 0.00 | 0.00 | 0.00 | 50 | 1018.1 |
| 20260505175908 | 26 | 154 | 3.2 | 3.2 | 0.00 | 0.00 | 0.00 | 49 | 1017.9 |
| 20260505175404 | 26 | 79 | 1.6 | 1.6 | 0.00 | 0.00 | 0.00 | 51 | 1018.0 |
| 20260505174900 | 26 | 276 | 6.4 | 8.0 | 0.00 | 0.00 | 0.00 | 50 | 1018.0 |
| 20260505174358 | 26 | 114 | 4.8 | 4.8 | 0.00 | 0.00 | 0.00 | 50 | 1018.0 |
| 20260505173854 | 25 | 185 | 3.2 | 4.8 | 0.00 | 0.00 | 0.00 | 49 | 1017.9 |
| 20260505173350 | 26 | 211 | 6.4 | 16.1 | 0.00 | 0.00 | 0.00 | 46 | 1018.0 |
| 20260505172847 | 25 | 179 | 4.8 | 8.0 | 0.00 | 0.00 | 0.00 | 52 | 1017.7 |
| 20260505172345 | 26 | 208 | 4.8 | 4.8 | 0.00 | 0.00 | 0.00 | 50 | 1017.9 |
| 20260505171845 | 26 | 144 | 8.0 | 11.3 | 0.00 | 0.00 | 0.00 | 49 | 1018.1 |
| 20260505171342 | 26 | 47 | 1.6 | 3.2 | 0.00 | 0.00 | 0.00 | 50 | 1018.3 |
| 20260505170838 | 26 | 91 | 3.2 | 3.2 | 0.00 | 0.00 | 0.00 | 49 | 1018.4 |
| 20260505170335 | 26 | 133 | 3.2 | 3.2 | 0.00 | 0.00 | 0.00 | 50 | 1018.3 |
| 20260505165831 | 26 | 116 | 1.6 | 3.2 | 0.00 | 0.00 | 0.00 | 51 | 1018.4 |
| 20260505165326 | 25 | 115 | 3.2 | 3.2 | 0.00 | 0.00 | 0.00 | 51 | 1018.5 |
| 20260505164822 | 26 | 215 | 6.4 | 9.7 | 0.00 | 0.00 | 0.00 | 53 | 1018.4 |
| 20260505164319 | 25 | 80 | 1.6 | 1.6 | 0.00 | 0.00 | 0.00 | 52 | 1018.8 |
| 20260505163818 | 25 | 209 | 6.4 | 9.7 | 0.00 | 0.00 | 0.00 | 52 | 1018.9 |
| 20260505163316 | 25 | 117 | 3.2 | 3.2 | 0.00 | 0.00 | 0.00 | 53 | 1018.6 |
| 20260505162814 | 25 | 35 | 4.8 | 4.8 | 0.00 | 0.00 | 0.00 | 51 | 1018.8 |
| 20260505162310 | 25 | 96 | 3.2 | 3.2 | 0.00 | 0.00 | 0.00 | 51 | 1018.6 |
| 20260505161807 | 25 | 198 | 4.8 | 4.8 | 0.00 | 0.00 | 0.00 | 52 | 1018.9 |
| 20260505161304 | 25 | 231 | 4.8 | 4.8 | 0.00 | 0.00 | 0.00 | 53 | 1018.8 |
| 20260505160802 | 25 | 84 | 1.6 | 1.6 | 0.00 | 0.00 | 0.00 | 52 | 1018.8 |
| 20260505160259 | 25 | 157 | 1.6 | 3.2 | 0.00 | 0.00 | 0.00 | 55 | 1019.0 |
| 20260505153238 | 25 | 90 | 3.2 | 3.2 | 0.00 | 0.00 | 0.00 | 58 | 1019.1 |
| 20260505152735 | 25 | 112 | 4.8 | 4.8 | 0.00 | 0.00 | 0.00 | 57 | 1019.1 |
| 20260505152231 | 24 | 139 | 3.2 | 3.2 | 0.00 | 0.00 | 0.00 | 56 | 1019.0 |
| 20260505151726 | 25 | 107 | 3.2 | 3.2 | 0.00 | 0.00 | 0.00 | 58 | 1018.9 |
| 20260505151224 | 25 | 104 | 3.2 | 3.2 | 0.00 | 0.00 | 0.00 | 59 | 1019.0 |
| 20260505150720 | 25 | 104 | 0.0 | 1.6 | 0.00 | 0.00 | 0.00 | 59 | 1019.1 |
| 20260505150217 | 23 | 138 | 1.6 | 3.2 | 0.00 | 0.00 | 0.00 | 61 | 1019.0 |
| 20260505140645 | 23 | 110 | 0.0 | 1.6 | 0.00 | 0.00 | 0.00 | 64 | 1018.9 |
| 20260505140142 | 22 | 57 | 3.2 | 3.2 | 0.00 | 0.00 | 0.00 | 64 | 1019.0 |
| 20260505130106 | 20 | 87 | 0.0 | 1.6 | 0.00 | 0.00 | 0.00 | 73 | 1018.6 |
| 20260505124555 | 20 | 95 | 1.6 | 1.6 | 0.00 | 0.00 | 0.00 | 76 | 1018.6 |
| 20260505124051 | 19 | 102 | 1.6 | 1.6 | 0.00 | 0.00 | 0.00 | 78 | 1018.6 |
| 20260505123548 | 19 | 93 | 0.0 | 1.6 | 0.00 | 0.00 | 0.00 | 78 | 1018.8 |
| 20260505123044 | 18 | 115 | 1.6 | 1.6 | 0.00 | 0.00 | 0.00 | 79 | 1018.7 |
| 20260505122541 | 19 | 111 | 1.6 | 1.6 | 0.00 | 0.00 | 0.00 | 79 | 1018.6 |
| 20260505122038 | 19 | 79 | 0.0 | 0.0 | 0.00 | 0.00 | 0.00 | 80 | 1018.8 |
| 20260505121535 | 18 | 79 | 0.0 | 0.0 | 0.00 | 0.00 | 0.00 | 84 | 1018.9 |
| 20260505121032 | 17 | 79 | 0.0 | 0.0 | 0.00 | 0.00 | 0.00 | 89 | 1018.7 |
| 20260505120528 | 17 | 79 | 0.0 | 0.0 | 0.00 | 0.00 | 0.00 | 94 | 1018.6 |
| 20260505120023 | 17 | 78 | 0.0 | 0.0 | 0.00 | 0.00 | 0.00 | 97 | 1018.5 |
| 20260505115518 | 15 | 78 | 0.0 | 0.0 | 0.00 | 0.00 | 0.00 | 99 | 1018.7 |
| 20260505115016 | 15 | 78 | 0.0 | 0.0 | 0.00 | 0.00 | 0.00 | 99 | 1018.6 |
| 20260505114513 | 13 | 78 | 0.0 | 0.0 | 0.00 | 0.00 | 0.00 | 99 | 1018.6 |
| 20260505114009 | 12 | 77 | 0.0 | 0.0 | 0.00 | 0.00 | 0.00 | 99 | 1018.6 |
| 20260505113506 | 12 | 83 | 0.0 | 0.0 | 0.00 | 0.00 | 0.00 | 99 | 1018.3 |
| 20260505113002 | 12 | 83 | 0.0 | 0.0 | 0.00 | 0.00 | 0.00 | 99 | 1018.4 |
| 20260505112459 | 12 | 83 | 0.0 | 0.0 | 0.00 | 0.00 | 0.00 | 98 | 1018.4 |
| 20260505111956 | 12 | 83 | 0.0 | 0.0 | 0.00 | 0.00 | 0.00 | 98 | 1018.2 |
| 20260505111450 | 12 | 83 | 0.0 | 0.0 | 0.00 | 0.00 | 0.00 | 99 | 1018.5 |
| 20260505110946 | 12 | 86 | 0.0 | 0.0 | 0.00 | 0.00 | 0.00 | 98 | 1018.2 |
| 20260505110443 | 12 | 90 | 0.0 | 0.0 | 0.00 | 0.00 | 0.00 | 98 | 1018.3 |
| 20260505101914 | 11 | 90 | 0.0 | 0.0 | 0.00 | 0.00 | 0.00 | 98 | 1017.5 |
| 20260505101409 | 11 | 90 | 0.0 | 0.0 | 0.00 | 0.00 | 0.00 | 98 | 1017.4 |
| 20260505100905 | 11 | 90 | 0.0 | 0.0 | 0.00 | 0.00 | 0.00 | 98 | 1017.4 |
| 20260505100402 | 11 | 90 | 0.0 | 0.0 | 0.00 | 0.00 | 0.00 | 98 | 1017.6 |
| 20260505095857 | 11 | 90 | 0.0 | 0.0 | 0.00 | 0.00 | 0.00 | 98 | 1017.4 |
| 20260505095355 | 11 | 90 | 0.0 | 0.0 | 0.00 | 0.00 | 0.00 | 98 | 1017.4 |
| 20260505094851 | 11 | 90 | 0.0 | 0.0 | 0.00 | 0.00 | 0.00 | 98 | 1017.6 |
| 20260505094348 | 11 | 90 | 0.0 | 0.0 | 0.00 | 0.00 | 0.00 | 97 | 1017.5 |
| 20260505093843 | 11 | 90 | 0.0 | 0.0 | 0.00 | 0.00 | 0.00 | 97 | 1017.4 |
| 20260505093341 | 11 | 90 | 0.0 | 0.0 | 0.00 | 0.00 | 0.00 | 97 | 1017.5 |
| 20260505092838 | 11 | 90 | 0.0 | 0.0 | 0.00 | 0.00 | 0.00 | 97 | 1017.4 |
| 20260505092337 | 11 | 90 | 0.0 | 0.0 | 0.00 | 0.00 | 0.00 | 97 | 1017.2 |
| 20260505091833 | 11 | 90 | 0.0 | 0.0 | 0.00 | 0.00 | 0.00 | 97 | 1017.1 |
| 20260505091331 | 11 | 90 | 0.0 | 0.0 | 0.00 | 0.00 | 0.00 | 97 | 1017.4 |
| 20260505090829 | 11 | 90 | 0.0 | 0.0 | 0.00 | 0.00 | 0.00 | 97 | 1017.3 |
| 20260505090327 | 12 | 90 | 0.0 | 0.0 | 0.00 | 0.00 | 0.00 | 97 | 1017.2 |
| 20260505085824 | 12 | 90 | 0.0 | 0.0 | 0.00 | 0.00 | 0.00 | 97 | 1017.2 |
| 20260505085322 | 12 | 90 | 0.0 | 0.0 | 0.00 | 0.00 | 0.00 | 97 | 1017.3 |
| 20260505084819 | 12 | 90 | 0.0 | 0.0 | 0.00 | 0.00 | 0.00 | 97 | 1017.0 |
| 20260505084318 | 12 | 90 | 0.0 | 0.0 | 0.00 | 0.00 | 0.00 | 97 | 1017.3 |
| 20260505083814 | 12 | 90 | 0.0 | 0.0 | 0.00 | 0.00 | 0.00 | 96 | 1017.1 |
| 20260505083312 | 12 | 90 | 0.0 | 0.0 | 0.00 | 0.00 | 0.00 | 96 | 1017.0 |
| 20260505082808 | 12 | 90 | 0.0 | 0.0 | 0.00 | 0.00 | 0.00 | 96 | 1017.0 |
| 20260505082305 | 12 | 90 | 0.0 | 0.0 | 0.00 | 0.00 | 0.00 | 96 | 1017.1 |
| 20260505081801 | 12 | 90 | 0.0 | 0.0 | 0.00 | 0.00 | 0.00 | 96 | 1016.8 |
| 20260505081258 | 12 | 90 | 0.0 | 0.0 | 0.00 | 0.00 | 0.00 | 96 | 1016.7 |
| 20260505080754 | 12 | 90 | 0.0 | 0.0 | 0.00 | 0.00 | 0.00 | 96 | 1016.8 |
| 20260505080250 | 12 | 90 | 0.0 | 0.0 | 0.00 | 0.00 | 0.00 | 96 | 1016.9 |
| 20260505075746 | 12 | 90 | 0.0 | 0.0 | 0.00 | 0.00 | 0.00 | 96 | 1016.8 |
| 20260505075244 | 12 | 90 | 0.0 | 0.0 | 0.00 | 0.00 | 0.00 | 96 | 1016.7 |
| 20260505074741 | 12 | 90 | 0.0 | 0.0 | 0.00 | 0.00 | 0.00 | 96 | 1016.6 |
| 20260505074238 | 12 | 90 | 0.0 | 0.0 | 0.00 | 0.00 | 0.00 | 95 | 1016.7 |
| 20260505073736 | 12 | 90 | 0.0 | 0.0 | 0.00 | 0.00 | 0.00 | 95 | 1016.7 |
| 20260505073233 | 12 | 90 | 0.0 | 0.0 | 0.00 | 0.00 | 0.00 | 95 | 1016.6 |
| 20260505072729 | 12 | 90 | 0.0 | 0.0 | 0.00 | 0.00 | 0.00 | 95 | 1016.8 |
| 20260505072226 | 12 | 90 | 0.0 | 0.0 | 0.00 | 0.00 | 0.00 | 95 | 1016.9 |
| 20260505071721 | 12 | 90 | 0.0 | 0.0 | 0.00 | 0.00 | 0.00 | 95 | 1016.8 |
| 20260505071219 | 12 | 90 | 0.0 | 0.0 | 0.00 | 0.00 | 0.00 | 95 | 1016.8 |
| 20260505070716 | 12 | 90 | 0.0 | 0.0 | 0.00 | 0.00 | 0.00 | 94 | 1016.4 |
| 20260505070212 | 12 | 90 | 0.0 | 0.0 | 0.00 | 0.00 | 0.00 | 94 | 1016.9 |
| 20260505065708 | 12 | 90 | 0.0 | 0.0 | 0.00 | 0.00 | 0.00 | 94 | 1017.0 |
| 20260505065205 | 12 | 90 | 0.0 | 0.0 | 0.00 | 0.00 | 0.00 | 94 | 1017.0 |
| 20260505064702 | 12 | 90 | 0.0 | 0.0 | 0.00 | 0.00 | 0.00 | 94 | 1016.9 |
| 20260505064200 | 12 | 90 | 0.0 | 0.0 | 0.00 | 0.00 | 0.00 | 94 | 1017.0 |
| 20260505063657 | 12 | 90 | 0.0 | 0.0 | 0.00 | 0.00 | 0.00 | 94 | 1017.0 |
| 20260505063153 | 12 | 90 | 0.0 | 0.0 | 0.00 | 0.00 | 0.00 | 93 | 1017.1 |
| 20260505062649 | 12 | 90 | 0.0 | 0.0 | 0.00 | 0.00 | 0.00 | 93 | 1017.2 |
| 20260505062147 | 12 | 90 | 0.0 | 0.0 | 0.00 | 0.00 | 0.00 | 93 | 1017.1 |
| 20260505061644 | 12 | 90 | 0.0 | 0.0 | 0.00 | 0.00 | 0.00 | 93 | 1017.4 |
| 20260505061142 | 12 | 90 | 0.0 | 0.0 | 0.00 | 0.00 | 0.00 | 93 | 1017.3 |
| 20260505060639 | 12 | 90 | 0.0 | 0.0 | 0.00 | 0.00 | 0.00 | 92 | 1017.5 |
| 20260505060136 | 12 | 90 | 0.0 | 0.0 | 0.00 | 0.00 | 0.00 | 92 | 1017.5 |
| 20260505055631 | 12 | 90 | 0.0 | 0.0 | 0.00 | 0.00 | 0.00 | 92 | 1017.6 |
| 20260505055128 | 12 | 90 | 0.0 | 0.0 | 0.00 | 0.00 | 0.00 | 92 | 1017.6 |
| 20260505054626 | 12 | 90 | 0.0 | 0.0 | 0.00 | 0.00 | 0.00 | 91 | 1017.9 |
| 20260505054124 | 12 | 90 | 0.0 | 0.0 | 0.00 | 0.00 | 0.00 | 91 | 1017.8 |
| 20260505053621 | 12 | 90 | 0.0 | 0.0 | 0.00 | 0.00 | 0.00 | 91 | 1017.8 |
| 20260505053117 | 13 | 91 | 0.0 | 0.0 | 0.00 | 0.00 | 0.00 | 91 | 1018.0 |
| 20260505052614 | 13 | 91 | 0.0 | 0.0 | 0.00 | 0.00 | 0.00 | 91 | 1018.0 |
| 20260505052112 | 13 | 92 | 0.0 | 0.0 | 0.00 | 0.00 | 0.00 | 90 | 1018.2 |
| 20260505051608 | 13 | 90 | 0.0 | 0.0 | 0.00 | 0.00 | 0.00 | 90 | 1018.0 |
| 20260505051107 | 13 | 90 | 0.0 | 0.0 | 0.00 | 0.00 | 0.00 | 90 | 1018.1 |
| 20260505050604 | 13 | 90 | 0.0 | 0.0 | 0.00 | 0.00 | 0.00 | 89 | 1018.3 |
| 20260505041532 | 13 | 91 | 0.0 | 0.0 | 0.00 | 0.00 | 0.00 | 86 | 1017.9 |
| 20260505041029 | 13 | 91 | 0.0 | 0.0 | 0.00 | 0.00 | 0.00 | 86 | 1018.2 |
| 20260505040526 | 13 | 91 | 0.0 | 0.0 | 0.00 | 0.00 | 0.00 | 86 | 1017.9 |
| 20260505040024 | 13 | 87 | 0.0 | 0.0 | 0.00 | 0.00 | 0.00 | 85 | 1018.1 |
| 20260505035519 | 13 | 85 | 0.0 | 0.0 | 0.00 | 0.00 | 0.00 | 85 | 1018.3 |
| 20260505035016 | 13 | 85 | 0.0 | 0.0 | 0.00 | 0.00 | 0.00 | 85 | 1018.2 |
| 20260505034513 | 13 | 85 | 0.0 | 0.0 | 0.00 | 0.00 | 0.00 | 84 | 1018.2 |
| 20260505034010 | 14 | 86 | 0.0 | 0.0 | 0.00 | 0.00 | 0.00 | 84 | 1018.1 |
| 20260505033507 | 14 | 85 | 0.0 | 0.0 | 0.00 | 0.00 | 0.00 | 83 | 1018.1 |
| 20260505033005 | 14 | 85 | 0.0 | 0.0 | 0.00 | 0.00 | 0.00 | 82 | 1018.0 |
| 20260505032502 | 14 | 85 | 0.0 | 0.0 | 0.00 | 0.00 | 0.00 | 82 | 1018.1 |
| 20260505031958 | 14 | 85 | 0.0 | 0.0 | 0.00 | 0.00 | 0.00 | 82 | 1018.2 |
| 20260505031455 | 14 | 85 | 0.0 | 0.0 | 0.00 | 0.00 | 0.00 | 82 | 1018.4 |
| 20260505030952 | 15 | 85 | 0.0 | 0.0 | 0.00 | 0.00 | 0.00 | 81 | 1018.1 |
| 20260505030448 | 15 | 85 | 0.0 | 0.0 | 0.00 | 0.00 | 0.00 | 81 | 1018.1 |
| 20260505025943 | 15 | 81 | 0.0 | 0.0 | 0.00 | 0.00 | 0.00 | 80 | 1018.1 |
| 20260505025441 | 15 | 91 | 0.0 | 0.0 | 0.00 | 0.00 | 0.00 | 79 | 1018.2 |
| 20260505024940 | 15 | 91 | 0.0 | 0.0 | 0.00 | 0.00 | 0.00 | 78 | 1018.1 |
| 20260505024437 | 15 | 91 | 0.0 | 0.0 | 0.00 | 0.00 | 0.00 | 78 | 1018.0 |
| 20260505023934 | 15 | 92 | 0.0 | 0.0 | 0.00 | 0.00 | 0.00 | 77 | 1018.0 |
| 20260505023431 | 15 | 92 | 0.0 | 0.0 | 0.00 | 0.00 | 0.00 | 77 | 1017.9 |
| 20260505022928 | 15 | 92 | 0.0 | 0.0 | 0.00 | 0.00 | 0.00 | 76 | 1017.8 |
| 20260505022426 | 15 | 92 | 0.0 | 0.0 | 0.00 | 0.00 | 0.00 | 76 | 1017.9 |
| 20260505021922 | 15 | 92 | 0.0 | 0.0 | 0.00 | 0.00 | 0.00 | 75 | 1018.0 |
| 20260505021419 | 15 | 92 | 0.0 | 0.0 | 0.00 | 0.00 | 0.00 | 74 | 1018.0 |
| 20260505020915 | 16 | 92 | 0.0 | 0.0 | 0.00 | 0.00 | 0.00 | 74 | 1018.0 |
| 20260505020410 | 16 | 92 | 0.0 | 0.0 | 0.00 | 0.00 | 0.00 | 73 | 1017.9 |
| 20260505015908 | 16 | 92 | 0.0 | 0.0 | 0.00 | 0.00 | 0.00 | 72 | 1017.8 |